Time;durP1;ratioP1;P1;durP2;ratioP2;P2;SDS_P1;SDS_P2;PMS_P1;PMS_P2;Temp;Humidity;BMP_temperature;BMP_pressure;BME280_temperature;BME280_humidity;BME280_pressure;Samples;Min_cycle;Max_cycle;Signal;HPM_P1;HPM_P2
2023/11/11 00:00:29;;;;;;;7.35;5.03;;;;;;;6.84;100.00;98586.91;10469074;28;20079;-76
2023/11/11 00:05:32;;;;;;;7.75;5.13;;;;;;;6.78;100.00;98584.81;10473033;28;20152;-77
2023/11/11 00:10:35;;;;;;;12.13;5.80;;;;;;;6.75;100.00;98577.09;10481013;28;20048;-77
2023/11/11 00:15:40;;;;;;;8.88;6.30;;;;;;;6.71;100.00;98573.03;10482379;28;20123;-77
2023/11/11 00:20:43;;;;;;;12.25;7.93;;;;;;;6.73;100.00;98570.22;10502692;28;20126;-77
2023/11/11 00:25:47;;;;;;;10.55;6.82;;;;;;;6.71;100.00;98561.53;10476481;28;20496;-77
2023/11/11 00:30:52;;;;;;;11.07;6.50;;;;;;;6.73;100.00;98562.22;10488648;28;20072;-77
2023/11/11 00:35:55;;;;;;;10.07;6.90;;;;;;;6.78;100.00;98563.47;10469046;28;20098;-77
2023/11/11 00:40:58;;;;;;;13.43;6.80;;;;;;;6.84;100.00;98568.22;10477762;28;20131;-77
2023/11/11 00:46:02;;;;;;;12.00;6.53;;;;;;;6.84;100.00;98580.72;10497977;28;20049;-78
2023/11/11 00:51:07;;;;;;;10.70;6.35;;;;;;;6.80;100.00;98569.50;10499271;28;20033;-78
2023/11/11 00:56:11;;;;;;;8.98;6.70;;;;;;;6.76;100.00;98576.13;10497413;28;20056;-76
2023/11/11 01:01:16;;;;;;;10.77;7.00;;;;;;;6.76;100.00;98581.44;10484247;28;20099;-78
2023/11/11 01:06:19;;;;;;;10.38;6.72;;;;;;;6.71;100.00;98586.38;10469844;28;20059;-77
2023/11/11 01:11:22;;;;;;;11.73;7.47;;;;;;;6.76;100.00;98577.94;10464059;28;20070;-77
2023/11/11 01:16:26;;;;;;;12.40;7.45;;;;;;;6.76;100.00;98573.44;10464853;28;20412;-78
2023/11/11 01:21:30;;;;;;;14.05;7.38;;;;;;;6.70;100.00;98587.38;10473268;28;20044;-78
2023/11/11 01:26:33;;;;;;;14.52;8.52;;;;;;;6.68;100.00;98585.81;10470258;28;20090;-78
2023/11/11 01:31:37;;;;;;;12.82;8.30;;;;;;;6.55;100.00;98586.13;10469803;28;20040;-78
2023/11/11 01:36:40;;;;;;;11.18;7.50;;;;;;;6.48;100.00;98582.34;10470179;28;20115;-78
2023/11/11 01:41:43;;;;;;;19.55;8.30;;;;;;;6.53;100.00;98596.94;10469850;28;20077;-78
2023/11/11 01:46:47;;;;;;;13.55;7.50;;;;;;;6.25;100.00;98603.13;10492508;28;20051;-78
2023/11/11 01:51:51;;;;;;;8.15;5.00;;;;;;;5.63;100.00;98610.47;10477689;28;20056;-78
2023/11/11 01:56:55;;;;;;;6.38;3.17;;;;;;;5.33;100.00;98614.84;10478633;28;20044;-78
2023/11/11 02:02:00;;;;;;;5.00;2.20;;;;;;;5.04;100.00;98620.03;10466028;28;20060;-78
2023/11/11 02:07:05;;;;;;;4.80;1.88;;;;;;;5.06;100.00;98632.22;10484150;28;20048;-77
2023/11/11 02:12:08;;;;;;;11.60;1.77;;;;;;;4.87;100.00;98632.09;10484258;28;20048;-78
2023/11/11 02:17:12;;;;;;;2.13;1.55;;;;;;;4.70;100.00;98646.81;10481862;28;20525;-77
2023/11/11 02:22:16;;;;;;;2.65;1.05;;;;;;;4.75;100.00;98638.47;10485648;28;20045;-77
2023/11/11 02:27:21;;;;;;;0.60;0.60;;;;;;;4.88;100.00;98644.41;10483424;28;20067;-77
2023/11/11 02:32:23;;;;;;;3.50;0.45;;;;;;;4.68;100.00;98642.59;10476561;28;20077;-77
2023/11/11 02:37:26;;;;;;;0.75;0.43;;;;;;;4.84;100.00;98627.88;10479998;28;20052;-77
2023/11/11 02:42:31;;;;;;;9.82;0.68;;;;;;;5.11;100.00;98620.38;10485032;28;20453;-78
2023/11/11 02:47:34;;;;;;;1.33;0.60;;;;;;;5.23;100.00;98637.91;10491178;28;20051;-77
2023/11/11 02:52:36;;;;;;;1.15;0.40;;;;;;;5.25;100.00;98641.28;10488036;28;20074;-78
2023/11/11 02:57:41;;;;;;;0.52;0.35;;;;;;;5.22;100.00;98654.88;10484786;28;20052;-77
2023/11/11 03:02:44;;;;;;;0.65;0.47;;;;;;;5.09;100.00;98659.56;10496721;28;20098;-78
2023/11/11 03:07:47;;;;;;;0.20;0.20;;;;;;;4.89;100.00;98659.41;10480643;28;20086;-77
2023/11/11 03:12:51;;;;;;;0.35;0.30;;;;;;;4.92;100.00;98674.28;10481795;28;20040;-78
2023/11/11 03:17:54;;;;;;;3.45;1.48;;;;;;;4.80;100.00;98684.13;10478352;28;20055;-78
2023/11/11 03:22:57;;;;;;;0.68;0.40;;;;;;;4.90;100.00;98678.88;10481659;28;20124;-78
2023/11/11 03:28:02;;;;;;;3.33;0.93;;;;;;;4.82;100.00;98683.00;10477354;28;20070;-78
2023/11/11 03:33:05;;;;;;;2.47;0.80;;;;;;;5.06;100.00;98685.44;10473669;28;20492;-78
2023/11/11 03:38:09;;;;;;;3.33;1.17;;;;;;;4.95;100.00;98692.63;10476682;28;20049;-76
2023/11/11 03:43:13;;;;;;;2.00;1.67;;;;;;;4.84;100.00;98690.88;10475863;28;20435;-77
2023/11/11 03:48:16;;;;;;;2.15;1.52;;;;;;;4.94;100.00;98698.94;10479274;28;20045;-77
2023/11/11 03:53:19;;;;;;;1.58;1.45;;;;;;;5.01;100.00;98703.63;10477820;28;20045;-76
2023/11/11 03:58:23;;;;;;;3.00;2.50;;;;;;;4.94;100.00;98710.44;10469372;28;20424;-76
2023/11/11 04:03:26;;;;;;;5.20;2.90;;;;;;;4.86;100.00;98718.22;10470849;28;20045;-76
2023/11/11 04:08:29;;;;;;;6.82;4.03;;;;;;;4.40;100.00;98717.53;10481735;28;20143;-78
2023/11/11 04:13:34;;;;;;;9.75;4.35;;;;;;;4.87;100.00;98725.19;10494913;28;20048;-78
2023/11/11 04:18:38;;;;;;;8.93;4.68;;;;;;;4.72;100.00;98727.34;10479157;28;20041;-77
2023/11/11 04:23:41;;;;;;;12.98;8.15;;;;;;;4.87;100.00;98732.34;10474079;28;20051;-77
2023/11/11 04:28:45;;;;;;;16.45;7.03;;;;;;;4.75;100.00;98729.75;10476648;28;20606;-77
2023/11/11 04:33:48;;;;;;;18.02;7.50;;;;;;;4.92;100.00;98738.13;10479958;28;20044;-77
2023/11/11 04:38:51;;;;;;;22.17;11.23;;;;;;;5.02;100.00;98742.59;10475887;28;20044;-77
2023/11/11 04:43:55;;;;;;;25.15;12.48;;;;;;;5.08;100.00;98745.72;10478896;28;20111;-77
2023/11/11 04:48:58;;;;;;;24.50;12.02;;;;;;;5.12;100.00;98752.44;10475775;28;20049;-77
2023/11/11 04:54:01;;;;;;;23.77;11.48;;;;;;;5.06;100.00;98767.94;10470252;28;20045;-77
2023/11/11 04:59:05;;;;;;;24.73;10.57;;;;;;;4.91;100.00;98760.38;10472152;28;20036;-77
2023/11/11 05:04:08;;;;;;;24.00;13.45;;;;;;;4.87;100.00;98773.09;10471502;28;20542;-77
2023/11/11 05:09:12;;;;;;;28.30;14.13;;;;;;;5.31;100.00;98765.06;10478232;28;20115;-77
2023/11/11 05:14:18;;;;;;;25.55;12.27;;;;;;;5.08;100.00;98780.31;10483095;28;20041;-77
2023/11/11 05:19:21;;;;;;;20.52;10.77;;;;;;;4.98;100.00;98804.13;10482295;28;20040;-76
2023/11/11 05:24:24;;;;;;;27.52;14.90;;;;;;;5.23;100.00;98798.47;10479905;28;20049;-77
2023/11/11 05:29:28;;;;;;;33.75;15.95;;;;;;;5.05;100.00;98814.19;10475050;28;20120;-78
2023/11/11 05:34:31;;;;;;;22.10;11.35;;;;;;;4.67;100.00;98827.94;10473379;28;20412;-76
2023/11/11 05:39:34;;;;;;;25.40;13.90;;;;;;;4.83;100.00;98830.19;10477928;28;20052;-77
2023/11/11 05:44:39;;;;;;;32.75;16.75;;;;;;;5.17;100.00;98846.06;10474638;28;20462;-78
2023/11/11 05:49:44;;;;;;;41.17;16.35;;;;;;;4.74;100.00;98845.06;10477670;28;20048;-77
2023/11/11 05:54:47;;;;;;;27.52;14.60;;;;;;;4.53;100.00;98858.31;10461666;28;20154;-77
2023/11/11 05:59:52;;;;;;;25.10;10.48;;;;;;;4.86;100.00;98861.88;10471538;28;20176;-77
2023/11/11 06:04:55;;;;;;;23.55;12.23;;;;;;;4.72;100.00;98856.84;10483629;28;20737;-77
2023/11/11 06:09:58;;;;;;;25.95;14.88;;;;;;;4.89;100.00;98864.28;10483292;28;20051;-77
2023/11/11 06:15:04;;;;;;;23.08;14.07;;;;;;;4.71;100.00;98868.44;10485712;28;20067;-77
2023/11/11 06:20:09;;;;;;;24.77;11.63;;;;;;;4.79;100.00;98887.28;10471691;28;20041;-77
2023/11/11 06:25:12;;;;;;;24.27;11.90;;;;;;;5.12;100.00;98893.50;10475300;28;20094;-77
2023/11/11 06:30:19;;;;;;;19.33;11.55;;;;;;;4.96;100.00;98901.88;10481211;28;20033;-77
2023/11/11 06:35:24;;;;;;;22.77;11.52;;;;;;;4.56;100.00;98900.59;10479389;28;20143;-77
2023/11/11 06:40:27;;;;;;;21.02;11.48;;;;;;;4.68;100.00;98912.06;10485574;28;20036;-77
2023/11/11 06:45:31;;;;;;;17.85;9.40;;;;;;;4.87;100.00;98924.75;10480082;28;20048;-77
2023/11/11 06:50:34;;;;;;;30.48;11.60;;;;;;;4.70;100.00;98933.25;10479006;28;20037;-77
2023/11/11 06:55:37;;;;;;;20.70;12.18;;;;;;;4.65;100.00;98938.91;10474302;28;20071;-77
2023/11/11 07:00:41;;;;;;;24.33;12.68;;;;;;;5.01;100.00;98947.63;10478924;28;20064;-77
2023/11/11 07:05:44;;;;;;;19.80;10.88;;;;;;;4.59;100.00;98955.38;10487003;28;20417;-78
2023/11/11 07:10:47;;;;;;;24.35;11.90;;;;;;;4.76;100.00;98970.84;10481692;28;20033;-77
2023/11/11 07:15:51;;;;;;;18.73;11.13;;;;;;;4.79;100.00;98977.72;10482033;28;20049;-77
2023/11/11 07:20:54;;;;;;;18.85;9.95;;;;;;;4.93;100.00;98974.81;10465868;28;20128;-77
2023/11/11 07:25:58;;;;;;;20.20;9.40;;;;;;;4.51;100.00;98977.25;10473767;28;20040;-77
2023/11/11 07:31:02;;;;;;;19.23;10.50;;;;;;;4.61;100.00;99004.81;10480790;28;20408;-77
2023/11/11 07:36:07;;;;;;;14.45;9.23;;;;;;;4.69;100.00;99009.53;10481696;28;20079;-77
2023/11/11 07:41:12;;;;;;;11.40;7.25;;;;;;;4.44;100.00;99020.38;10498053;28;20080;-77
2023/11/11 07:46:19;;;;;;;12.43;5.65;;;;;;;4.58;100.00;99023.69;10469955;28;20459;-77
2023/11/11 07:51:22;;;;;;;19.58;9.75;;;;;;;4.97;100.00;99036.63;10466758;28;20044;-77
2023/11/11 07:56:34;;;;;;;14.82;7.55;;;;;;;4.63;100.00;99036.59;10471298;28;20037;-77
2023/11/11 08:01:38;;;;;;;16.08;8.10;;;;;;;4.89;100.00;99039.06;10474257;28;20039;-77
2023/11/11 08:06:43;;;;;;;16.98;9.38;;;;;;;4.74;100.00;99033.94;10479768;28;20058;-77
2023/11/11 08:11:46;;;;;;;15.30;5.68;;;;;;;4.55;100.00;99041.66;10471826;28;20128;-77
2023/11/11 08:16:52;;;;;;;14.98;8.45;;;;;;;4.88;100.00;99047.97;10475113;28;20045;-77
2023/11/11 08:21:55;;;;;;;17.92;10.95;;;;;;;4.95;100.00;99044.72;10460036;28;20066;-77
2023/11/11 08:26:58;;;;;;;11.95;7.75;;;;;;;4.73;100.00;99036.75;10464894;28;20065;-77
2023/11/11 08:32:02;;;;;;;20.13;10.55;;;;;;;4.87;100.00;99040.97;10477845;28;20036;-77
2023/11/11 08:37:05;;;;;;;15.05;8.85;;;;;;;5.06;100.00;99047.41;10472800;28;20051;-77
2023/11/11 08:42:09;;;;;;;12.75;5.95;;;;;;;5.27;100.00;99050.19;10475678;28;20090;-77
2023/11/11 08:47:13;;;;;;;14.30;7.60;;;;;;;5.43;100.00;99065.78;10456951;28;20113;-77
2023/11/11 08:52:16;;;;;;;11.70;4.90;;;;;;;5.27;100.00;99047.53;10465453;28;20489;-77
2023/11/11 08:57:19;;;;;;;6.68;4.18;;;;;;;5.67;98.52;99060.25;10470374;28;20049;-77
2023/11/11 09:02:24;;;;;;;10.65;5.70;;;;;;;5.97;97.09;99050.72;10470278;28;20147;-78
2023/11/11 09:07:27;;;;;;;7.03;4.72;;;;;;;6.36;94.32;99051.88;10470961;28;20055;-78
2023/11/11 09:12:31;;;;;;;5.50;4.05;;;;;;;6.55;88.55;99055.63;10467281;28;20037;-78
2023/11/11 09:17:36;;;;;;;7.90;4.82;;;;;;;6.46;90.77;99054.59;10468885;28;20507;-77
2023/11/11 09:22:40;;;;;;;5.22;3.17;;;;;;;6.12;90.91;99067.28;10468233;28;20040;-78
2023/11/11 09:27:43;;;;;;;9.55;3.90;;;;;;;5.72;92.56;99073.22;10470980;28;20044;-78
2023/11/11 09:32:50;;;;;;;6.32;2.88;;;;;;;5.95;91.67;99092.63;10478308;28;20468;-77
2023/11/11 09:37:53;;;;;;;10.75;4.30;;;;;;;5.59;92.85;99083.16;10469973;28;20044;-78
2023/11/11 09:42:57;;;;;;;7.78;2.95;;;;;;;5.70;92.96;99084.00;10472449;28;20033;-78
2023/11/11 09:48:02;;;;;;;2.92;1.83;;;;;;;5.57;92.91;99106.41;10470734;28;20126;-77
2023/11/11 09:53:06;;;;;;;5.00;2.40;;;;;;;5.60;93.02;99096.38;10465601;28;20511;-77
2023/11/11 09:58:10;;;;;;;6.60;2.30;;;;;;;5.95;91.27;99098.84;10474269;28;20053;-77
2023/11/11 10:03:17;;;;;;;2.67;1.42;;;;;;;5.90;90.29;99101.03;10474137;28;20048;-76
2023/11/11 10:08:23;;;;;;;4.63;2.08;;;;;;;6.04;89.00;99105.22;10475861;28;20045;-77
2023/11/11 10:13:27;;;;;;;6.43;1.85;;;;;;;6.54;87.13;99109.97;10464803;28;20528;-77
2023/11/11 10:18:31;;;;;;;1.23;0.80;;;;;;;6.62;84.54;99105.69;10461645;28;20090;-76
2023/11/11 10:23:35;;;;;;;4.90;1.80;;;;;;;6.96;85.57;99113.50;10475100;28;20492;-77
2023/11/11 10:28:37;;;;;;;3.60;1.50;;;;;;;6.75;85.60;99105.50;10477794;28;20098;-76
2023/11/11 10:33:43;;;;;;;4.22;1.95;;;;;;;6.76;86.03;99106.31;10489413;28;20074;-76
2023/11/11 10:38:46;;;;;;;6.18;2.05;;;;;;;6.50;86.74;99106.72;10475326;28;20057;-75
2023/11/11 10:43:50;;;;;;;4.47;2.35;;;;;;;6.33;88.28;99112.59;10466126;28;20045;-76
2023/11/11 10:48:56;;;;;;;1.85;1.73;;;;;;;5.99;88.69;99112.75;10473285;28;20127;-76
2023/11/11 10:54:01;;;;;;;2.13;1.45;;;;;;;6.01;89.48;99120.63;10482943;28;20037;-76
2023/11/11 10:59:06;;;;;;;2.90;1.90;;;;;;;6.20;89.47;99103.94;10483473;28;20050;-76
2023/11/11 11:04:11;;;;;;;6.13;2.17;;;;;;;6.33;88.10;99107.28;10487184;28;20094;-76
2023/11/11 11:09:27;;;;;;;2.70;1.27;;;;;;;6.29;87.01;99112.03;10470054;28;20117;-77
2023/11/11 11:14:44;;;;;;;2.38;1.63;;;;;;;6.07;89.14;99112.13;10473746;28;20033;-76
2023/11/11 11:20:00;;;;;;;2.25;1.30;;;;;;;5.92;92.00;99108.88;10476554;28;20091;-76
2023/11/11 11:25:32;;;;;;;2.58;1.27;;;;;;;5.58;97.39;99114.28;10484766;28;20045;-77
2023/11/11 11:30:35;;;;;;;2.80;2.45;;;;;;;5.46;100.00;99118.81;10484196;28;20045;-77
2023/11/11 11:35:43;;;;;;;6.15;1.70;;;;;;;5.30;100.00;99125.47;10483746;28;20056;-76
2023/11/11 11:40:47;;;;;;;3.85;2.10;;;;;;;5.26;100.00;99112.38;10476716;28;20041;-81
2023/11/11 11:45:50;;;;;;;3.55;2.28;;;;;;;5.45;100.00;99121.56;10471682;28;20037;-77
2023/11/11 11:51:05;;;;;;;2.53;2.33;;;;;;;5.10;100.00;99135.88;10483062;28;20052;-78
2023/11/11 11:56:10;;;;;;;4.60;2.40;;;;;;;5.19;100.00;99121.84;10479338;28;20047;-76
2023/11/11 12:01:25;;;;;;;3.50;2.40;;;;;;;5.16;100.00;99122.06;10499678;28;20032;-77
2023/11/11 12:06:29;;;;;;;2.75;2.47;;;;;;;5.18;100.00;99138.75;10489577;28;20124;-78
2023/11/11 12:11:33;;;;;;;5.10;3.47;;;;;;;5.14;100.00;99128.50;10493274;28;20041;-79
2023/11/11 12:16:40;;;;;;;8.38;3.53;;;;;;;5.06;100.00;99139.72;10526298;28;20096;-78
2023/11/11 12:21:49;;;;;;;8.68;4.00;;;;;;;5.21;100.00;99145.66;10530762;28;20028;-77
2023/11/11 12:26:55;;;;;;;8.77;4.25;;;;;;;5.05;100.00;99138.88;10533833;28;20209;-77
2023/11/11 12:32:01;;;;;;;5.00;4.47;;;;;;;5.24;100.00;99138.28;10527591;28;20029;-76
2023/11/11 12:37:05;;;;;;;6.40;4.03;;;;;;;4.95;100.00;99151.16;10530643;28;20028;-76
2023/11/11 12:42:08;;;;;;;6.95;5.05;;;;;;;4.97;100.00;99145.75;10485638;28;20515;-77
2023/11/11 12:47:12;;;;;;;8.88;6.57;;;;;;;5.02;100.00;99151.59;10504753;28;20048;-78
2023/11/11 12:52:18;;;;;;;9.75;5.75;;;;;;;5.01;100.00;99161.38;10515303;28;20045;-78
2023/11/11 12:57:25;;;;;;;14.48;8.80;;;;;;;4.92;100.00;99154.06;10510606;28;20067;-78
2023/11/11 13:02:28;;;;;;;11.43;7.28;;;;;;;4.90;100.00;99155.16;10511017;28;20547;-78
2023/11/11 13:07:32;;;;;;;13.65;8.85;;;;;;;4.94;100.00;99151.31;10507802;28;20051;-77
2023/11/11 13:12:35;;;;;;;20.98;13.63;;;;;;;5.10;100.00;99164.28;10505112;28;20041;-78
2023/11/11 13:17:38;;;;;;;17.92;9.80;;;;;;;4.82;100.00;99164.56;10517343;28;20067;-78
2023/11/11 13:22:43;;;;;;;20.35;13.52;;;;;;;5.05;100.00;99168.16;10511715;28;20085;-77
2023/11/11 13:27:51;;;;;;;21.02;13.35;;;;;;;5.00;100.00;99170.31;10494092;28;20534;-78
2023/11/11 13:32:54;;;;;;;19.27;12.55;;;;;;;4.98;100.00;99174.88;10483501;28;20127;-78
2023/11/11 13:37:58;;;;;;;17.67;9.77;;;;;;;4.96;100.00;99182.13;10476461;28;20040;-78
2023/11/11 13:43:02;;;;;;;9.18;5.60;;;;;;;4.64;100.00;99178.44;10485607;28;20037;-78
2023/11/11 13:48:05;;;;;;;17.80;9.88;;;;;;;4.88;100.00;99175.69;10480044;28;20036;-78
2023/11/11 13:53:10;;;;;;;20.63;10.50;;;;;;;4.86;100.00;99172.34;10487680;28;20063;-78
2023/11/11 13:58:13;;;;;;;17.13;12.40;;;;;;;5.12;100.00;99187.16;10477582;28;20041;-78
2023/11/11 14:03:18;;;;;;;23.48;13.10;;;;;;;5.37;100.00;99182.59;10474453;28;20041;-77
2023/11/11 14:08:23;;;;;;;22.92;14.32;;;;;;;5.30;100.00;99190.22;10476645;28;20044;-78
2023/11/11 14:13:29;;;;;;;24.73;15.00;;;;;;;5.19;100.00;99198.19;10476525;28;20041;-78
2023/11/11 14:18:32;;;;;;;21.35;14.07;;;;;;;5.10;100.00;99202.41;10482741;28;20060;-77
2023/11/11 14:23:37;;;;;;;23.25;14.07;;;;;;;5.56;100.00;99195.31;10479229;28;20047;-77
2023/11/11 14:28:40;;;;;;;29.40;16.15;;;;;;;5.15;100.00;99208.22;10484009;28;20139;-77
2023/11/11 14:33:44;;;;;;;28.45;16.58;;;;;;;5.52;100.00;99215.16;10477241;28;20049;-77
2023/11/11 14:39:04;;;;;;;22.45;12.80;;;;;;;5.42;100.00;99220.34;10472579;28;20073;-77
2023/11/11 14:44:08;;;;;;;21.95;11.93;;;;;;;5.26;100.00;99216.22;10485595;28;20040;-77
2023/11/11 14:49:11;;;;;;;21.00;12.73;;;;;;;5.61;100.00;99217.09;10487823;28;20048;-78
2023/11/11 14:54:15;;;;;;;23.83;15.20;;;;;;;5.31;100.00;99220.34;10482542;28;20049;-79
2023/11/11 14:59:18;;;;;;;24.02;15.57;;;;;;;5.56;100.00;99220.13;10480392;28;20143;-78
2023/11/11 15:04:21;;;;;;;28.25;13.80;;;;;;;5.80;100.00;99222.66;10469862;28;20049;-77
2023/11/11 15:09:25;;;;;;;19.67;11.48;;;;;;;5.50;100.00;99242.75;10485046;28;20052;-78
2023/11/11 15:14:28;;;;;;;23.55;15.65;;;;;;;5.43;100.00;99238.03;10477507;28;20072;-77
2023/11/11 15:19:31;;;;;;;17.05;12.80;;;;;;;5.72;100.00;99233.91;10481499;28;20048;-77
2023/11/11 15:24:35;;;;;;;28.00;12.88;;;;;;;5.41;100.00;99240.81;10480889;28;20109;-78
2023/11/11 15:29:39;;;;;;;23.13;14.57;;;;;;;5.50;100.00;99255.22;10477410;28;20182;-77
2023/11/11 15:34:43;;;;;;;18.45;14.90;;;;;;;5.48;100.00;99244.69;10473342;28;20037;-78
2023/11/11 15:39:47;;;;;;;21.95;13.35;;;;;;;5.70;100.00;99251.88;10468058;28;20458;-77
2023/11/11 15:44:51;;;;;;;20.42;12.00;;;;;;;5.49;100.00;99246.41;10478563;28;20049;-78
2023/11/11 15:49:54;;;;;;;18.38;11.80;;;;;;;5.47;100.00;99260.81;10480551;28;20484;-78
2023/11/11 15:54:58;;;;;;;17.58;12.20;;;;;;;5.46;100.00;99257.28;10479597;28;20129;-78
2023/11/11 16:00:01;;;;;;;21.40;15.23;;;;;;;5.69;100.00;99258.16;10471063;28;20546;-78
2023/11/11 16:05:12;;;;;;;19.95;12.95;;;;;;;5.61;100.00;99265.88;10457530;28;20080;-78
2023/11/11 16:10:16;;;;;;;26.27;12.55;;;;;;;5.44;100.00;99266.38;10474327;28;20052;-78
2023/11/11 16:15:19;;;;;;;25.63;13.27;;;;;;;5.70;100.00;99269.66;10475441;28;20128;-77
2023/11/11 16:20:22;;;;;;;16.10;11.80;;;;;;;5.72;100.00;99276.56;10475488;28;20705;-77
2023/11/11 16:25:26;;;;;;;21.17;9.07;;;;;;;5.59;100.00;99286.47;10472347;28;20075;-77
2023/11/11 16:30:29;;;;;;;17.85;9.98;;;;;;;5.52;100.00;99289.75;10460505;28;20057;-78
2023/11/11 16:35:32;;;;;;;17.63;10.60;;;;;;;5.55;100.00;99286.84;10459038;28;20056;-77
2023/11/11 16:40:36;;;;;;;13.30;9.77;;;;;;;5.66;100.00;99286.84;10467339;28;20052;-78
2023/11/11 16:45:41;;;;;;;14.10;7.35;;;;;;;5.52;100.00;99309.25;10469550;28;20074;-78
2023/11/11 16:50:44;;;;;;;12.55;6.22;;;;;;;5.26;100.00;99320.06;10471703;28;20048;-77
2023/11/11 16:55:48;;;;;;;12.43;6.45;;;;;;;5.41;100.00;99314.53;10470564;28;20076;-78
2023/11/11 17:00:51;;;;;;;15.88;7.65;;;;;;;5.67;100.00;99320.50;10466808;28;20049;-78
2023/11/11 17:05:54;;;;;;;15.35;6.70;;;;;;;5.67;100.00;99329.34;10465620;28;20060;-78
2023/11/11 17:11:01;;;;;;;9.32;6.22;;;;;;;5.52;100.00;99327.88;10471669;28;20128;-77
2023/11/11 17:16:05;;;;;;;11.90;6.63;;;;;;;5.51;100.00;99318.19;10474934;28;20047;-77
2023/11/11 17:21:09;;;;;;;12.02;6.07;;;;;;;5.27;100.00;99329.75;10475652;28;20624;-78
2023/11/11 17:26:13;;;;;;;11.48;7.72;;;;;;;5.35;100.00;99342.50;10473956;28;20048;-78
2023/11/11 17:31:16;;;;;;;12.07;8.52;;;;;;;5.38;100.00;99338.75;10460525;28;20056;-78
2023/11/11 17:36:19;;;;;;;16.50;8.85;;;;;;;5.26;100.00;99337.84;10467289;28;20047;-77
2023/11/11 17:41:23;;;;;;;17.70;9.25;;;;;;;5.43;100.00;99334.78;10478986;28;20090;-78
2023/11/11 17:46:26;;;;;;;18.33;9.07;;;;;;;5.38;100.00;99344.06;10477383;28;20033;-78
2023/11/11 17:51:29;;;;;;;13.90;8.73;;;;;;;5.66;100.00;99348.13;10473634;28;20036;-78
2023/11/11 17:56:33;;;;;;;15.68;9.25;;;;;;;5.71;100.00;99352.13;10467766;28;20044;-77
2023/11/11 18:01:37;;;;;;;14.32;8.48;;;;;;;5.38;100.00;99355.56;10474725;28;20045;-78
2023/11/11 18:06:42;;;;;;;14.50;8.35;;;;;;;5.32;100.00;99344.53;10484862;28;20048;-77
2023/11/11 18:11:46;;;;;;;18.60;8.90;;;;;;;5.60;100.00;99348.63;10482033;28;20112;-78
2023/11/11 18:16:49;;;;;;;12.88;7.65;;;;;;;5.56;100.00;99341.81;10485646;28;20040;-77
2023/11/11 18:21:52;;;;;;;13.80;8.32;;;;;;;5.46;100.00;99350.50;10481058;28;20045;-77
2023/11/11 18:26:57;;;;;;;16.63;10.63;;;;;;;5.63;100.00;99348.38;10478416;28;20045;-77
2023/11/11 18:32:01;;;;;;;11.10;6.63;;;;;;;5.47;100.00;99354.03;10472629;28;20453;-77
2023/11/11 18:37:05;;;;;;;16.92;8.80;;;;;;;5.61;100.00;99364.47;10481686;28;20120;-77
2023/11/11 18:42:09;;;;;;;14.73;8.90;;;;;;;5.36;100.00;99370.81;10482259;28;20048;-77
2023/11/11 18:47:13;;;;;;;13.77;8.57;;;;;;;5.44;100.00;99386.22;10483181;28;20055;-77
2023/11/11 18:52:17;;;;;;;18.20;8.02;;;;;;;5.51;100.00;99382.09;10481545;28;20541;-77
2023/11/11 18:57:21;;;;;;;19.70;9.77;;;;;;;5.63;100.00;99404.31;10475589;28;20044;-77
2023/11/11 19:02:25;;;;;;;17.75;11.90;;;;;;;5.65;100.00;99391.72;10477752;28;20040;-77
2023/11/11 19:07:28;;;;;;;14.90;9.68;;;;;;;5.68;100.00;99394.16;10480442;28;20064;-77
2023/11/11 19:12:32;;;;;;;12.50;10.20;;;;;;;5.75;100.00;99402.53;10484333;28;20040;-77
2023/11/11 19:17:35;;;;;;;16.10;9.57;;;;;;;5.74;100.00;99393.69;10481166;28;20116;-77
2023/11/11 19:22:38;;;;;;;13.00;8.52;;;;;;;5.51;100.00;99408.75;10482714;28;20135;-77
2023/11/11 19:27:43;;;;;;;12.80;7.55;;;;;;;5.54;100.00;99405.88;10470131;28;20040;-77
2023/11/11 19:32:46;;;;;;;13.73;8.10;;;;;;;5.67;100.00;99411.09;10473254;28;20048;-77
2023/11/11 19:37:50;;;;;;;17.52;10.32;;;;;;;5.72;100.00;99411.59;10481140;28;20044;-77
2023/11/11 19:42:54;;;;;;;11.80;6.72;;;;;;;5.61;100.00;99424.91;10480956;28;20064;-77
2023/11/11 19:47:57;;;;;;;13.05;7.40;;;;;;;5.61;100.00;99411.56;10477979;28;20048;-77
2023/11/11 19:53:01;;;;;;;17.48;9.77;;;;;;;5.68;100.00;99421.66;10476017;28;20124;-77
2023/11/11 19:58:05;;;;;;;14.90;10.35;;;;;;;5.44;100.00;99413.69;10471183;28;20501;-77
2023/11/11 20:03:08;;;;;;;17.83;9.95;;;;;;;5.50;100.00;99426.53;10481876;28;20044;-77
2023/11/11 20:08:11;;;;;;;13.60;8.50;;;;;;;5.41;100.00;99432.56;10477852;28;20045;-78
2023/11/11 20:13:16;;;;;;;15.40;10.30;;;;;;;5.68;100.00;99429.66;10482916;28;20091;-77
2023/11/11 20:18:19;;;;;;;16.90;9.05;;;;;;;5.41;100.00;99426.41;10476581;28;20048;-77
2023/11/11 20:23:24;;;;;;;14.52;10.50;;;;;;;5.48;100.00;99428.47;10472788;28;20495;-77
2023/11/11 20:28:28;;;;;;;17.88;10.35;;;;;;;5.47;100.00;99431.25;10472501;28;20033;-77
2023/11/11 20:33:33;;;;;;;18.08;11.30;;;;;;;5.43;100.00;99433.31;10474012;28;20040;-77
2023/11/11 20:38:37;;;;;;;18.63;11.25;;;;;;;5.67;100.00;99437.75;10478327;28;20041;-77
2023/11/11 20:43:42;;;;;;;18.30;12.85;;;;;;;5.54;100.00;99423.66;10476343;28;20041;-77
2023/11/11 20:48:44;;;;;;;21.63;11.63;;;;;;;5.54;100.00;99426.31;10474970;28;20430;-77
2023/11/11 20:53:48;;;;;;;21.25;12.65;;;;;;;5.73;100.00;99424.81;10473150;28;20036;-77
2023/11/11 20:58:52;;;;;;;18.10;11.73;;;;;;;5.54;100.00;99432.50;10468520;28;20044;-77
2023/11/11 21:03:55;;;;;;;12.43;7.53;;;;;;;5.22;100.00;99432.25;10476206;28;20036;-77
2023/11/11 21:08:58;;;;;;;20.98;13.57;;;;;;;5.50;100.00;99426.53;10476895;28;20415;-78
2023/11/11 21:14:02;;;;;;;26.95;16.65;;;;;;;5.37;100.00;99430.25;10474811;28;20052;-77
2023/11/11 21:19:06;;;;;;;23.10;14.68;;;;;;;5.50;100.00;99425.69;10475819;28;20411;-77
2023/11/11 21:24:12;;;;;;;22.38;15.88;;;;;;;5.31;100.00;99436.88;10465279;28;20094;-77
2023/11/11 21:29:17;;;;;;;21.95;14.98;;;;;;;5.25;100.00;99427.53;10478184;28;20068;-78
2023/11/11 21:34:20;;;;;;;28.52;15.38;;;;;;;5.17;100.00;99437.06;10479370;28;20665;-77
2023/11/11 21:39:25;;;;;;;23.20;15.73;;;;;;;5.26;100.00;99426.56;10476894;28;20478;-78
2023/11/11 21:44:29;;;;;;;25.10;16.27;;;;;;;5.15;100.00;99430.97;10478895;28;20094;-78
2023/11/11 21:49:32;;;;;;;24.60;13.27;;;;;;;5.09;100.00;99432.28;10468249;28;20040;-77
2023/11/11 21:54:36;;;;;;;24.73;16.65;;;;;;;5.26;100.00;99428.38;10471481;28;20119;-77
2023/11/11 21:59:40;;;;;;;21.63;13.90;;;;;;;5.28;100.00;99418.47;10474696;28;20208;-78
2023/11/11 22:04:43;;;;;;;24.73;15.88;;;;;;;5.08;100.00;99424.44;10474435;28;20140;-77
2023/11/11 22:09:46;;;;;;;23.58;13.77;;;;;;;5.27;100.00;99427.44;10479007;28;20094;-77
2023/11/11 22:14:50;;;;;;;28.25;17.58;;;;;;;5.30;100.00;99432.53;10473433;28;20049;-77
2023/11/11 22:19:53;;;;;;;27.17;18.65;;;;;;;5.11;100.00;99425.03;10473269;28;20056;-77
2023/11/11 22:24:56;;;;;;;28.90;17.17;;;;;;;5.03;100.00;99428.25;10468383;28;20036;-77
2023/11/11 22:30:00;;;;;;;35.40;18.95;;;;;;;5.01;100.00;99427.53;10473093;28;20086;-77
2023/11/11 22:35:03;;;;;;;34.15;20.10;;;;;;;4.80;100.00;99424.59;10477927;28;20515;-77
2023/11/11 22:40:10;;;;;;;30.55;18.92;;;;;;;5.01;100.00;99424.84;10476493;28;20633;-77
2023/11/11 22:45:17;;;;;;;32.78;17.80;;;;;;;5.04;100.00;99421.97;10479341;28;20048;-77
2023/11/11 22:50:20;;;;;;;34.17;21.50;;;;;;;5.02;100.00;99417.75;10470183;28;20045;-77
2023/11/11 22:55:23;;;;;;;32.00;22.17;;;;;;;5.01;100.00;99414.22;10482177;28;20052;-77
2023/11/11 23:00:40;;;;;;;34.70;20.85;;;;;;;5.00;100.00;99415.19;10484316;28;20048;-77
2023/11/11 23:05:46;;;;;;;38.78;22.00;;;;;;;4.88;100.00;99420.50;10482699;28;20043;-77
2023/11/11 23:10:49;;;;;;;31.77;16.08;;;;;;;4.69;100.00;99428.97;10484674;28;20392;-77
2023/11/11 23:15:54;;;;;;;43.78;24.63;;;;;;;4.62;100.00;99429.41;10474030;28;20128;-77